createdAt,value
2023-01-20T00:01:46.497Z,94.77
2023-01-20T00:04:15.615Z,93.74
2023-01-20T00:06:42.536Z,94.83
2023-01-20T00:09:17.874Z,95.79
2023-01-20T00:11:49.953Z,97.41
2023-01-20T00:14:19.212Z,97.47
2023-01-20T00:16:46.127Z,98.11
2023-01-20T00:19:18.173Z,98.00
2023-01-20T00:21:45.132Z,98.70
2023-01-20T00:24:14.551Z,98.15
2023-01-20T00:26:41.489Z,98.31
2023-01-20T00:29:09.297Z,96.73
2023-01-20T00:31:36.518Z,97.00
2023-01-20T00:34:06.215Z,95.54
2023-01-20T00:36:34.076Z,94.76
2023-01-20T00:39:06.737Z,94.73
2023-01-20T00:41:34.022Z,95.19
2023-01-20T00:44:03.175Z,94.34
2023-01-20T00:46:32.539Z,95.15
2023-01-20T00:49:01.508Z,94.97
2023-01-20T00:51:28.499Z,95.82
2023-01-20T00:53:58.411Z,95.87
2023-01-20T00:56:25.358Z,96.34
2023-01-20T00:58:55.338Z,96.81
2023-01-20T01:01:23.623Z,96.48
2023-01-20T01:03:54.580Z,96.63
2023-01-20T01:06:23.351Z,96.56
2023-01-20T01:08:50.284Z,94.39
2023-01-20T01:11:22.052Z,95.39
2023-01-20T01:13:51.903Z,94.46
2023-01-20T01:16:19.035Z,94.15
2023-01-20T01:18:46.086Z,95.32
2023-01-20T01:21:16.507Z,94.82
2023-01-20T01:23:46.258Z,93.99
2023-01-20T01:26:13.675Z,93.94
2023-01-20T01:28:45.605Z,94.58
2023-01-20T01:31:17.081Z,94.65
2023-01-20T01:33:44.124Z,94.61
2023-01-20T01:36:28.631Z,94.17
2023-01-20T01:38:57.685Z,94.20
2023-01-20T01:41:26.596Z,94.84
2023-01-20T01:44:12.807Z,95.28
2023-01-20T01:46:40.847Z,95.35
2023-01-20T01:49:23.148Z,96.09
2023-01-20T01:52:06.360Z,95.55
2023-01-20T01:54:41.602Z,94.50
2023-01-20T01:57:11.617Z,94.41
2023-01-20T01:59:38.962Z,94.78
2023-01-20T02:02:06.057Z,95.31
2023-01-20T02:04:35.019Z,95.91
2023-01-20T02:07:11.576Z,97.06
2023-01-20T02:09:39.267Z,96.88
2023-01-20T02:12:13.000Z,96.38
2023-01-20T02:14:52.721Z,96.57
2023-01-20T02:17:38.571Z,96.67
2023-01-20T02:20:46.008Z,96.55
2023-01-20T02:23:42.535Z,95.15
2023-01-20T02:26:56.013Z,95.40
2023-01-20T02:29:44.844Z,95.97
2023-01-20T02:32:29.546Z,96.63
2023-01-20T02:35:09.206Z,96.15
2023-01-20T02:38:28.922Z,95.54
2023-01-20T02:41:10.718Z,94.65
2023-01-20T02:44:22.379Z,93.70
2023-01-20T02:47:02.318Z,94.18
2023-01-20T02:49:46.793Z,94.15
2023-01-20T02:52:25.373Z,93.15
2023-01-20T02:54:56.567Z,93.20
2023-01-20T02:57:35.819Z,92.70
2023-01-20T03:00:24.855Z,94.34
2023-01-20T03:03:03.347Z,93.96
2023-01-20T03:05:40.815Z,93.85
2023-01-20T03:08:13.987Z,94.18
2023-01-20T03:10:42.947Z,94.04
2023-01-20T03:13:31.910Z,95.03
2023-01-20T03:16:05.379Z,95.71
2023-01-20T03:18:36.509Z,94.52
2023-01-20T03:21:05.659Z,93.69
2023-01-20T03:23:40.903Z,95.43
2023-01-20T03:26:12.155Z,95.79
2023-01-20T03:28:41.391Z,94.41
2023-01-20T03:31:30.950Z,95.18
2023-01-20T03:34:01.825Z,94.56
2023-01-20T03:36:30.774Z,94.58
2023-01-20T03:38:59.462Z,94.01
2023-01-20T03:42:00.115Z,93.36
2023-01-20T03:44:57.219Z,91.83
2023-01-20T03:47:46.602Z,93.85
2023-01-20T03:50:19.298Z,94.82
2023-01-20T03:52:53.181Z,95.11
2023-01-20T03:55:28.952Z,94.98
2023-01-20T03:58:04.999Z,94.22
2023-01-20T04:00:39.935Z,95.18
2023-01-20T04:03:19.447Z,95.05
2023-01-20T04:05:48.291Z,94.96
2023-01-20T04:08:20.618Z,94.08
2023-01-20T04:10:50.144Z,94.55
2023-01-20T04:13:17.171Z,92.73
2023-01-20T04:15:45.903Z,92.91
2023-01-20T04:18:21.291Z,92.38
2023-01-20T04:20:53.300Z,92.56
2023-01-20T04:23:24.422Z,92.01
2023-01-20T04:25:51.314Z,91.58
2023-01-20T04:28:18.203Z,90.05
2023-01-20T04:30:45.176Z,90.84
2023-01-20T04:33:12.090Z,90.27
2023-01-20T04:35:41.965Z,89.83
2023-01-20T04:38:14.832Z,89.26
2023-01-20T04:40:41.895Z,88.46
2023-01-20T04:43:12.102Z,89.27
2023-01-20T04:45:43.827Z,88.70
2023-01-20T04:48:10.884Z,86.98
2023-01-20T04:50:41.750Z,87.95
2023-01-20T04:53:13.760Z,87.35
2023-01-20T04:55:40.679Z,88.34
2023-01-20T04:58:10.674Z,87.99
2023-01-20T05:00:37.780Z,88.39
2023-01-20T05:03:07.942Z,88.48
2023-01-20T05:05:37.218Z,89.55
2023-01-20T05:08:06.312Z,89.08
2023-01-20T05:10:34.572Z,89.02
2023-01-20T05:13:01.716Z,88.14
2023-01-20T05:15:28.691Z,88.59
2023-01-20T05:17:55.620Z,89.14
2023-01-20T05:20:22.521Z,90.91
2023-01-20T05:22:54.011Z,92.76
2023-01-20T05:25:20.881Z,92.37
2023-01-20T05:27:50.874Z,90.79
2023-01-20T05:30:18.000Z,89.18
2023-01-20T05:32:56.974Z,87.81
2023-01-20T05:35:23.910Z,87.65
2023-01-20T05:37:54.747Z,87.45
2023-01-20T05:40:22.439Z,88.17
2023-01-20T05:42:51.887Z,89.38
2023-01-20T05:45:18.726Z,90.70
2023-01-20T05:47:45.657Z,89.80
2023-01-20T05:50:15.056Z,89.60
2023-01-20T05:52:49.317Z,88.36
2023-01-20T05:55:16.968Z,87.99
2023-01-20T05:57:44.221Z,86.89
2023-01-20T06:00:15.042Z,89.31
2023-01-20T06:02:42.319Z,89.03
2023-01-20T06:05:09.577Z,90.18
2023-01-20T06:07:39.038Z,90.54
2023-01-20T06:10:08.645Z,90.68
2023-01-20T06:12:35.665Z,92.33
2023-01-20T06:15:07.640Z,91.83
2023-01-20T06:17:37.073Z,91.24
2023-01-20T06:20:06.592Z,92.26
2023-01-20T06:22:37.961Z,93.32
2023-01-20T06:25:05.442Z,91.84
2023-01-20T06:27:32.507Z,90.73
2023-01-20T06:30:04.030Z,89.62
2023-01-20T06:32:31.134Z,88.83
2023-01-20T06:34:57.968Z,87.19
2023-01-20T06:37:24.898Z,85.72
2023-01-20T06:39:51.741Z,85.29
2023-01-20T06:42:18.742Z,85.48
2023-01-20T06:44:45.644Z,85.74
2023-01-20T06:47:14.889Z,85.49
2023-01-20T06:49:45.464Z,86.02
2023-01-20T06:52:12.375Z,85.74
2023-01-20T06:54:41.610Z,87.27
2023-01-20T06:57:11.012Z,87.57
2023-01-20T06:59:40.035Z,85.83
2023-01-20T07:02:12.266Z,86.71
2023-01-20T07:04:39.355Z,88.05
2023-01-20T07:07:12.936Z,87.87
2023-01-20T07:09:40.036Z,88.59
2023-01-20T07:12:10.010Z,89.07
2023-01-20T07:14:41.575Z,88.34
2023-01-20T07:17:14.611Z,87.40
2023-01-20T07:19:46.077Z,88.03
2023-01-20T07:22:15.277Z,87.07
2023-01-20T07:24:42.161Z,85.75
2023-01-20T07:27:15.060Z,86.98
2023-01-20T07:29:44.268Z,86.56
2023-01-20T07:32:13.635Z,86.18
2023-01-20T07:34:40.469Z,86.74
2023-01-20T07:37:07.439Z,86.06
2023-01-20T07:39:36.234Z,86.53
2023-01-20T07:42:03.342Z,85.72
2023-01-20T07:44:33.087Z,87.66
2023-01-20T07:47:00.152Z,90.57
2023-01-20T07:49:31.680Z,89.99
2023-01-20T07:51:58.768Z,91.07
2023-01-20T07:54:25.867Z,90.55
2023-01-20T07:56:52.823Z,90.06
2023-01-20T07:59:22.240Z,89.27
2023-01-20T08:01:49.301Z,87.49
2023-01-20T08:04:18.009Z,87.79
2023-01-20T08:06:49.344Z,87.31
2023-01-20T08:09:16.348Z,85.67
2023-01-20T08:11:43.331Z,85.49
2023-01-20T08:14:14.128Z,84.98
2023-01-20T08:16:41.210Z,85.73
2023-01-20T08:19:08.250Z,84.96
2023-01-20T08:21:36.391Z,84.39
2023-01-20T08:24:08.945Z,83.99
2023-01-20T08:26:39.424Z,83.79
2023-01-20T08:29:10.639Z,83.22
2023-01-20T08:31:38.063Z,85.12
2023-01-20T08:34:06.525Z,85.39
2023-01-20T08:36:36.805Z,85.13
2023-01-20T08:39:08.687Z,85.23
2023-01-20T08:41:38.829Z,85.53
2023-01-20T08:44:07.567Z,86.06
2023-01-20T08:46:41.939Z,85.63
2023-01-20T08:49:16.212Z,86.54
2023-01-20T08:51:44.919Z,86.99
2023-01-20T08:54:12.164Z,86.19
2023-01-20T08:56:39.680Z,86.10
2023-01-20T08:59:07.122Z,85.09
2023-01-20T09:01:38.348Z,83.22
2023-01-20T09:04:06.979Z,83.51
2023-01-20T09:06:43.803Z,83.29
2023-01-20T09:09:15.479Z,85.26
2023-01-20T09:11:50.491Z,86.46
2023-01-20T09:14:22.603Z,86.27
2023-01-20T09:16:54.645Z,86.32
2023-01-20T09:19:24.191Z,85.77
2023-01-20T09:21:51.246Z,84.85
2023-01-20T09:24:18.326Z,86.18
2023-01-20T09:26:45.461Z,86.49
2023-01-20T09:29:18.771Z,85.71
2023-01-20T09:31:54.061Z,85.51
2023-01-20T09:34:24.481Z,84.90
2023-01-20T09:36:57.995Z,84.14
2023-01-20T09:39:44.213Z,82.15
2023-01-20T09:43:08.256Z,80.76
2023-01-20T09:45:48.858Z,81.21
2023-01-20T09:49:05.384Z,80.63
2023-01-20T09:52:20.241Z,79.60
2023-01-20T09:55:26.478Z,80.38
2023-01-20T09:58:25.592Z,79.67
2023-01-20T10:01:35.414Z,78.77
2023-01-20T10:04:24.400Z,78.22
2023-01-20T10:06:57.400Z,77.23
2023-01-20T10:09:47.852Z,77.80
2023-01-20T10:12:37.208Z,78.67
2023-01-20T10:15:21.497Z,77.03
2023-01-20T10:18:19.391Z,74.82
2023-01-20T10:21:06.818Z,74.48
2023-01-20T10:24:00.616Z,73.63
2023-01-20T10:26:56.087Z,71.39
2023-01-20T10:29:34.489Z,62.04
2023-01-20T10:32:06.831Z,52.25
2023-01-20T10:34:45.607Z,45.39
2023-01-20T10:37:15.245Z,41.69
2023-01-20T10:39:55.008Z,35.39
2023-01-20T10:42:22.947Z,33.36
2023-01-20T10:44:51.373Z,31.69
2023-01-20T10:47:26.621Z,31.16
2023-01-20T10:50:07.847Z,35.28
2023-01-20T10:52:51.219Z,38.43
2023-01-20T10:55:58.429Z,42.78
2023-01-20T10:58:33.870Z,43.15
2023-01-20T11:01:06.907Z,43.27
2023-01-20T11:03:44.413Z,39.64
2023-01-20T11:06:23.442Z,39.38
2023-01-20T11:08:50.907Z,41.13
2023-01-20T11:11:25.641Z,43.81
2023-01-20T11:13:57.417Z,43.74
2023-01-20T11:16:31.719Z,45.51
2023-01-20T11:18:58.726Z,45.60
2023-01-20T11:21:29.331Z,45.96
2023-01-20T11:24:00.968Z,44.81
2023-01-20T11:26:33.590Z,44.17
2023-01-20T11:29:29.440Z,44.95
2023-01-20T11:31:59.856Z,47.25
2023-01-20T11:34:35.662Z,49.26
2023-01-20T11:37:05.777Z,51.30
2023-01-20T11:39:37.108Z,52.88
2023-01-20T11:42:26.074Z,53.72
2023-01-20T11:45:20.218Z,53.33
2023-01-20T11:48:16.072Z,53.93
2023-01-20T11:50:58.565Z,55.57
2023-01-20T11:53:33.102Z,53.46
2023-01-20T11:56:02.328Z,52.61
2023-01-20T11:58:50.864Z,52.18
2023-01-20T12:01:30.797Z,50.64
2023-01-20T12:04:20.205Z,49.67
2023-01-20T12:06:56.875Z,49.91
2023-01-20T12:09:35.438Z,51.12
2023-01-20T12:12:25.699Z,51.84
2023-01-20T12:15:02.918Z,51.64
2023-01-20T12:17:41.479Z,49.61
2023-01-20T12:20:35.423Z,49.66
2023-01-20T12:23:27.978Z,48.63
2023-01-20T12:26:06.291Z,48.76
2023-01-20T12:28:56.289Z,41.79
2023-01-20T12:31:24.974Z,36.27
2023-01-20T12:34:05.006Z,32.71
2023-01-20T12:37:11.659Z,31.24
2023-01-20T12:39:59.662Z,32.08
2023-01-20T12:42:54.335Z,30.79
2023-01-20T12:46:02.377Z,27.94
2023-01-20T12:49:02.740Z,27.50
2023-01-20T12:51:59.135Z,26.39
2023-01-20T12:54:55.030Z,25.91
2023-01-20T12:57:33.295Z,26.75
2023-01-20T13:00:45.536Z,26.00
2023-01-20T13:04:02.473Z,26.11
2023-01-20T13:06:36.539Z,28.20
2023-01-20T13:09:37.115Z,32.90
2023-01-20T13:12:31.363Z,31.14
2023-01-20T13:15:19.780Z,30.16
2023-01-20T13:18:21.898Z,30.03
2023-01-20T13:20:49.819Z,30.94
2023-01-20T13:23:24.462Z,32.36
2023-01-20T13:25:52.648Z,31.85
2023-01-20T13:28:30.607Z,30.95
2023-01-20T13:31:00.404Z,29.10
2023-01-20T13:33:38.693Z,28.20
2023-01-20T13:36:26.228Z,28.72
2023-01-20T13:39:40.411Z,30.07
2023-01-20T13:42:29.280Z,29.72
2023-01-20T13:45:11.618Z,28.98
2023-01-20T13:48:10.967Z,29.99
2023-01-20T13:50:47.640Z,31.57
2023-01-20T13:53:28.326Z,33.46
2023-01-20T13:55:58.819Z,37.71
2023-01-20T13:58:33.593Z,41.10
2023-01-20T14:01:14.904Z,41.39
2023-01-20T14:03:44.533Z,43.17
2023-01-20T14:06:14.414Z,44.21
2023-01-20T14:08:51.245Z,46.94
2023-01-20T14:11:21.791Z,46.72
2023-01-20T14:13:58.475Z,48.00
2023-01-20T14:16:34.643Z,48.23
2023-01-20T14:19:34.250Z,49.41
2023-01-20T14:22:37.085Z,49.89
2023-01-20T14:25:04.516Z,50.79
2023-01-20T14:27:41.787Z,51.52
2023-01-20T14:30:27.422Z,52.13
2023-01-20T14:32:54.802Z,52.80
2023-01-20T14:35:31.274Z,53.14
2023-01-20T14:38:03.995Z,53.90
2023-01-20T14:40:35.375Z,54.44
2023-01-20T14:43:22.476Z,54.82
2023-01-20T14:45:54.675Z,54.32
2023-01-20T14:48:33.963Z,54.69
2023-01-20T14:51:06.291Z,55.87
2023-01-20T14:53:35.459Z,55.48
2023-01-20T14:56:09.983Z,55.65
2023-01-20T14:58:46.626Z,56.10
2023-01-20T15:01:25.719Z,55.88
2023-01-20T15:04:01.892Z,56.02
2023-01-20T15:06:28.926Z,55.98
2023-01-20T15:09:06.492Z,56.30
2023-01-20T15:11:35.573Z,56.65
2023-01-20T15:14:02.560Z,57.18
2023-01-20T15:16:47.578Z,57.72
2023-01-20T15:19:18.385Z,58.09
2023-01-20T15:21:56.578Z,57.81
2023-01-20T15:24:32.792Z,58.08
2023-01-20T15:27:04.243Z,58.82
2023-01-20T15:29:36.741Z,59.45
2023-01-20T15:32:12.720Z,60.05
2023-01-20T15:34:39.652Z,59.79
2023-01-20T15:37:18.717Z,60.52
2023-01-20T15:39:48.187Z,61.20
2023-01-20T15:42:18.935Z,61.00
2023-01-20T15:44:46.388Z,61.75
2023-01-20T15:47:31.110Z,62.57
2023-01-20T15:49:58.779Z,62.27
2023-01-20T15:52:28.169Z,63.02
2023-01-20T15:54:55.331Z,62.34
2023-01-20T15:57:22.246Z,62.52
2023-01-20T15:59:50.225Z,63.24
2023-01-20T16:02:23.173Z,63.60
2023-01-20T16:04:50.483Z,64.14
2023-01-20T16:07:21.670Z,64.62
2023-01-20T16:09:49.191Z,64.74
2023-01-20T16:12:18.341Z,65.63
2023-01-20T16:14:47.866Z,64.71
2023-01-20T16:17:24.824Z,65.16
2023-01-20T16:19:51.756Z,65.17
2023-01-20T16:22:18.885Z,66.06
2023-01-20T16:24:51.388Z,66.32
2023-01-20T16:27:22.443Z,66.68
2023-01-20T16:29:49.919Z,68.13
2023-01-20T16:32:22.232Z,68.09
2023-01-20T16:34:52.157Z,68.75
2023-01-20T16:37:21.572Z,68.92
2023-01-20T16:39:52.983Z,69.70
2023-01-20T16:42:29.770Z,69.73
2023-01-20T16:44:58.848Z,70.09
2023-01-20T16:47:25.764Z,70.46
2023-01-20T16:49:55.804Z,71.21
2023-01-20T16:52:22.802Z,71.80
2023-01-20T16:54:49.676Z,71.75
2023-01-20T16:57:16.569Z,73.39
2023-01-20T16:59:43.564Z,73.18
2023-01-20T17:02:12.116Z,72.21
2023-01-20T17:04:41.961Z,73.09
2023-01-20T17:07:08.999Z,73.44
2023-01-20T17:09:38.549Z,73.24
2023-01-20T17:12:05.691Z,74.09
2023-01-20T17:14:34.888Z,73.21
2023-01-20T17:17:03.967Z,73.70
2023-01-20T17:19:33.394Z,74.52
2023-01-20T17:22:00.519Z,75.29
2023-01-20T17:24:27.609Z,74.97
2023-01-20T17:26:54.720Z,75.13
2023-01-20T17:29:21.955Z,74.65
2023-01-20T17:31:49.133Z,75.00
2023-01-20T17:34:18.593Z,73.99
2023-01-20T17:36:48.225Z,74.76
2023-01-20T17:39:17.682Z,73.75
2023-01-20T17:41:44.588Z,73.52
2023-01-20T17:44:13.308Z,73.36
2023-01-20T17:46:40.318Z,73.95
2023-01-20T17:49:09.955Z,73.10
2023-01-20T17:51:37.103Z,73.64
2023-01-20T17:54:06.689Z,73.97
2023-01-20T17:56:35.114Z,74.32
2023-01-20T17:59:05.793Z,74.17
2023-01-20T18:01:35.950Z,73.34
2023-01-20T18:04:06.424Z,72.93
2023-01-20T18:06:35.343Z,73.79
2023-01-20T18:09:07.839Z,74.55
2023-01-20T18:11:37.657Z,74.49
2023-01-20T18:14:06.807Z,75.30
2023-01-20T18:16:38.934Z,75.30
2023-01-20T18:19:09.237Z,76.04
2023-01-20T18:21:38.396Z,76.14
2023-01-20T18:24:07.673Z,76.61
2023-01-20T18:26:37.753Z,76.93
2023-01-20T18:29:14.889Z,77.46
2023-01-20T18:31:46.769Z,77.63
2023-01-20T18:34:20.732Z,77.84
2023-01-20T18:36:50.514Z,78.59
2023-01-20T18:39:24.147Z,78.43
2023-01-20T18:41:52.183Z,78.35
2023-01-20T18:44:20.175Z,78.70
2023-01-20T18:46:47.236Z,77.86
2023-01-20T18:49:17.884Z,77.56
2023-01-20T18:51:49.776Z,78.10
2023-01-20T18:54:20.951Z,78.41
2023-01-20T18:56:48.182Z,78.74
2023-01-20T18:59:15.367Z,79.17
2023-01-20T19:01:44.829Z,78.71
2023-01-20T19:04:13.632Z,79.22
2023-01-20T19:06:45.508Z,78.08
2023-01-20T19:09:35.080Z,78.81
2023-01-20T19:12:04.781Z,78.40
2023-01-20T19:14:31.790Z,78.69
2023-01-20T19:16:58.808Z,78.48
2023-01-20T19:19:28.418Z,77.45
2023-01-20T19:21:55.251Z,76.91
2023-01-20T19:24:22.450Z,77.68
2023-01-20T19:26:49.832Z,76.97
2023-01-20T19:29:18.021Z,77.28
2023-01-20T19:31:45.228Z,77.26
2023-01-20T19:34:12.877Z,77.16
2023-01-20T19:36:39.996Z,76.48
2023-01-20T19:39:09.640Z,76.69
2023-01-20T19:41:38.798Z,76.31
2023-01-20T19:44:10.916Z,76.77
2023-01-20T19:46:39.340Z,77.28
2023-01-20T19:49:11.467Z,78.34
2023-01-20T19:51:41.869Z,78.36
2023-01-20T19:54:17.343Z,77.66
2023-01-20T19:56:44.665Z,76.98
2023-01-20T19:59:17.029Z,80.27
2023-01-20T20:01:47.236Z,79.18
2023-01-20T20:04:14.563Z,77.68
2023-01-20T20:06:48.508Z,77.15
2023-01-20T20:09:23.334Z,77.30
2023-01-20T20:11:50.679Z,77.71
2023-01-20T20:14:20.647Z,77.97
2023-01-20T20:16:48.854Z,78.21
2023-01-20T20:19:19.985Z,79.72
2023-01-20T20:21:46.956Z,79.72
2023-01-20T20:24:18.279Z,80.25
2023-01-20T20:26:49.508Z,79.56
2023-01-20T20:29:19.027Z,80.25
2023-01-20T20:31:46.891Z,79.93
2023-01-20T20:34:17.497Z,80.36
2023-01-20T20:36:45.061Z,80.51
2023-01-20T20:39:19.711Z,79.85
2023-01-20T20:41:47.056Z,79.56
2023-01-20T20:44:14.921Z,78.86
2023-01-20T20:46:41.793Z,78.50
2023-01-20T20:49:15.473Z,79.28
2023-01-20T20:51:45.111Z,79.57
2023-01-20T20:54:20.234Z,80.22
2023-01-20T20:56:47.147Z,80.42
2023-01-20T20:59:14.345Z,79.97
2023-01-20T21:01:41.357Z,80.10
2023-01-20T21:04:08.745Z,80.30
2023-01-20T21:06:35.697Z,80.03
2023-01-20T21:09:03.138Z,80.05
2023-01-20T21:11:30.290Z,80.35
2023-01-20T21:13:57.554Z,80.19
2023-01-20T21:16:26.132Z,80.64
2023-01-20T21:18:56.398Z,80.19
2023-01-20T21:21:24.034Z,79.73
2023-01-20T21:23:54.634Z,79.43
2023-01-20T21:26:22.972Z,80.87
2023-01-20T21:28:52.135Z,80.34
2023-01-20T21:31:26.809Z,79.32
2023-01-20T21:33:58.291Z,80.75
2023-01-20T21:36:27.187Z,80.12
2023-01-20T21:38:54.559Z,79.27
2023-01-20T21:41:21.647Z,80.00
2023-01-20T21:44:07.750Z,78.47
2023-01-20T21:46:40.277Z,78.84
2023-01-20T21:49:27.765Z,78.99
2023-01-20T21:52:14.372Z,79.38
2023-01-20T21:54:41.780Z,78.63
2023-01-20T21:57:11.109Z,78.59
2023-01-20T21:59:38.198Z,78.40
2023-01-20T22:02:08.407Z,78.82
2023-01-20T22:04:35.368Z,78.67
2023-01-20T22:07:04.788Z,78.41
2023-01-20T22:09:34.048Z,79.44
2023-01-20T22:12:00.899Z,78.62
2023-01-20T22:14:32.338Z,79.02
2023-01-20T22:17:05.467Z,78.35
2023-01-20T22:19:35.315Z,78.53
2023-01-20T22:22:06.964Z,78.97
2023-01-20T22:24:36.117Z,78.63
2023-01-20T22:27:03.147Z,78.24
2023-01-20T22:29:30.445Z,78.36
2023-01-20T22:31:59.438Z,78.31
2023-01-20T22:34:29.313Z,78.18
2023-01-20T22:36:57.666Z,77.68
2023-01-20T22:39:24.550Z,78.40
2023-01-20T22:41:51.407Z,78.87
2023-01-20T22:44:18.491Z,78.46
2023-01-20T22:46:47.677Z,78.29
2023-01-20T22:49:17.225Z,78.05
2023-01-20T22:51:46.880Z,77.79
2023-01-20T22:54:13.900Z,78.31
2023-01-20T22:56:40.814Z,78.11
2023-01-20T22:59:13.598Z,77.55
2023-01-20T23:01:40.681Z,77.46
2023-01-20T23:04:10.076Z,77.95
2023-01-20T23:06:42.007Z,77.71
2023-01-20T23:09:14.437Z,77.15
2023-01-20T23:11:41.742Z,78.13
2023-01-20T23:14:12.670Z,78.33
2023-01-20T23:16:43.341Z,78.49
2023-01-20T23:19:10.725Z,77.34
2023-01-20T23:21:37.660Z,78.12
2023-01-20T23:24:09.033Z,78.07
2023-01-20T23:26:38.544Z,78.17
2023-01-20T23:29:08.049Z,78.41
2023-01-20T23:31:38.159Z,78.76
2023-01-20T23:34:05.188Z,79.39
2023-01-20T23:36:34.954Z,79.11
2023-01-20T23:39:04.464Z,78.54
2023-01-20T23:41:31.543Z,78.52
2023-01-20T23:44:05.467Z,76.88
2023-01-20T23:46:32.390Z,76.62
2023-01-20T23:48:59.226Z,76.88
2023-01-20T23:51:26.282Z,77.73
2023-01-20T23:53:58.828Z,77.88
2023-01-20T23:56:26.066Z,77.39
2023-01-20T23:58:55.427Z,77.61
